sensor_id;sensor_type;location;lat;lon;timestamp;P1;durP1;ratioP1;P2;durP2;ratioP2
22248;SDS011;67538;52.180;5.646;2023-02-08T00:00:11;18.63;;;13.52;;
22248;SDS011;67538;52.180;5.646;2023-02-08T00:02:40;18.30;;;12.88;;
22248;SDS011;67538;52.180;5.646;2023-02-08T00:05:07;17.02;;;12.75;;
22248;SDS011;67538;52.180;5.646;2023-02-08T00:07:34;17.25;;;12.75;;
22248;SDS011;67538;52.180;5.646;2023-02-08T00:10:01;17.08;;;12.98;;
22248;SDS011;67538;52.180;5.646;2023-02-08T00:12:30;18.67;;;13.10;;
22248;SDS011;67538;52.180;5.646;2023-02-08T00:14:57;19.48;;;13.35;;
22248;SDS011;67538;52.180;5.646;2023-02-08T00:17:24;20.52;;;13.70;;
22248;SDS011;67538;52.180;5.646;2023-02-08T00:19:53;18.25;;;12.85;;
22248;SDS011;67538;52.180;5.646;2023-02-08T00:22:20;18.23;;;13.45;;
22248;SDS011;67538;52.180;5.646;2023-02-08T00:24:48;19.60;;;13.45;;
22248;SDS011;67538;52.180;5.646;2023-02-08T00:27:15;18.20;;;14.02;;
22248;SDS011;67538;52.180;5.646;2023-02-08T00:29:42;18.95;;;14.00;;
22248;SDS011;67538;52.180;5.646;2023-02-08T00:32:09;19.42;;;13.68;;
22248;SDS011;67538;52.180;5.646;2023-02-08T00:34:36;16.48;;;12.70;;
22248;SDS011;67538;52.180;5.646;2023-02-08T00:37:05;18.05;;;13.50;;
22248;SDS011;67538;52.180;5.646;2023-02-08T00:39:32;16.77;;;12.48;;
22248;SDS011;67538;52.180;5.646;2023-02-08T00:41:59;19.33;;;13.55;;
22248;SDS011;67538;52.180;5.646;2023-02-08T00:44:26;20.25;;;13.40;;
22248;SDS011;67538;52.180;5.646;2023-02-08T00:46:53;20.08;;;14.30;;
22248;SDS011;67538;52.180;5.646;2023-02-08T00:49:20;18.60;;;14.15;;
22248;SDS011;67538;52.180;5.646;2023-02-08T00:51:47;21.90;;;14.32;;
22248;SDS011;67538;52.180;5.646;2023-02-08T00:54:16;19.17;;;13.63;;
22248;SDS011;67538;52.180;5.646;2023-02-08T00:56:45;18.38;;;13.15;;
22248;SDS011;67538;52.180;5.646;2023-02-08T00:59:12;18.35;;;13.30;;
22248;SDS011;67538;52.180;5.646;2023-02-08T01:01:39;17.90;;;12.65;;
22248;SDS011;67538;52.180;5.646;2023-02-08T01:04:07;19.20;;;13.40;;
22248;SDS011;67538;52.180;5.646;2023-02-08T01:06:34;17.33;;;13.07;;
22248;SDS011;67538;52.180;5.646;2023-02-08T01:09:01;20.50;;;13.27;;
22248;SDS011;67538;52.180;5.646;2023-02-08T01:11:30;16.80;;;12.83;;
22248;SDS011;67538;52.180;5.646;2023-02-08T01:13:57;18.02;;;13.65;;
22248;SDS011;67538;52.180;5.646;2023-02-08T01:16:26;19.43;;;13.40;;
22248;SDS011;67538;52.180;5.646;2023-02-08T01:18:55;17.38;;;12.30;;
22248;SDS011;67538;52.180;5.646;2023-02-08T01:21:24;18.02;;;13.55;;
22248;SDS011;67538;52.180;5.646;2023-02-08T01:23:52;17.67;;;13.10;;
22248;SDS011;67538;52.180;5.646;2023-02-08T01:26:20;18.93;;;14.07;;
22248;SDS011;67538;52.180;5.646;2023-02-08T01:28:49;18.52;;;13.27;;
22248;SDS011;67538;52.180;5.646;2023-02-08T01:31:18;18.93;;;13.67;;
22248;SDS011;67538;52.180;5.646;2023-02-08T01:33:47;18.08;;;13.80;;
22248;SDS011;67538;52.180;5.646;2023-02-08T01:36:14;18.45;;;13.23;;
22248;SDS011;67538;52.180;5.646;2023-02-08T01:38:42;19.85;;;13.20;;
22248;SDS011;67538;52.180;5.646;2023-02-08T01:41:12;17.30;;;12.82;;
22248;SDS011;67538;52.180;5.646;2023-02-08T01:44:02;17.77;;;13.20;;
22248;SDS011;67538;52.180;5.646;2023-02-08T01:46:31;16.70;;;12.65;;
22248;SDS011;67538;52.180;5.646;2023-02-08T01:49:00;17.23;;;13.32;;
22248;SDS011;67538;52.180;5.646;2023-02-08T01:51:30;17.25;;;12.60;;
22248;SDS011;67538;52.180;5.646;2023-02-08T01:54:00;18.27;;;13.48;;
22248;SDS011;67538;52.180;5.646;2023-02-08T01:56:30;19.40;;;14.45;;
22248;SDS011;67538;52.180;5.646;2023-02-08T01:59:03;21.30;;;14.73;;
22248;SDS011;67538;52.180;5.646;2023-02-08T02:01:34;18.88;;;14.02;;
22248;SDS011;67538;52.180;5.646;2023-02-08T02:04:02;19.48;;;13.70;;
22248;SDS011;67538;52.180;5.646;2023-02-08T02:06:32;19.60;;;14.40;;
22248;SDS011;67538;52.180;5.646;2023-02-08T02:09:04;19.83;;;13.30;;
22248;SDS011;67538;52.180;5.646;2023-02-08T02:11:35;19.92;;;14.38;;
22248;SDS011;67538;52.180;5.646;2023-02-08T02:14:04;19.35;;;14.80;;
22248;SDS011;67538;52.180;5.646;2023-02-08T02:16:31;18.23;;;13.98;;
22248;SDS011;67538;52.180;5.646;2023-02-08T02:18:58;17.47;;;13.67;;
22248;SDS011;67538;52.180;5.646;2023-02-08T02:21:33;17.98;;;13.70;;
22248;SDS011;67538;52.180;5.646;2023-02-08T02:33:16;17.93;;;13.57;;
22248;SDS011;67538;52.180;5.646;2023-02-08T02:35:53;19.05;;;13.77;;
22248;SDS011;67538;52.180;5.646;2023-02-08T02:38:28;18.17;;;13.63;;
22248;SDS011;67538;52.180;5.646;2023-02-08T02:41:05;17.60;;;12.67;;
22248;SDS011;67538;52.180;5.646;2023-02-08T02:44:01;18.88;;;14.07;;
22248;SDS011;67538;52.180;5.646;2023-02-08T02:46:32;18.90;;;14.27;;
22248;SDS011;67538;52.180;5.646;2023-02-08T02:49:06;19.10;;;14.15;;
22248;SDS011;67538;52.180;5.646;2023-02-08T02:51:41;19.55;;;14.50;;
22248;SDS011;67538;52.180;5.646;2023-02-08T02:54:13;21.15;;;15.07;;
22248;SDS011;67538;52.180;5.646;2023-02-08T02:56:43;19.80;;;14.18;;
22248;SDS011;67538;52.180;5.646;2023-02-08T02:59:13;18.10;;;13.82;;
22248;SDS011;67538;52.180;5.646;2023-02-08T03:01:42;18.33;;;13.38;;
22248;SDS011;67538;52.180;5.646;2023-02-08T03:04:14;18.20;;;13.95;;
22248;SDS011;67538;52.180;5.646;2023-02-08T03:06:47;17.20;;;13.75;;
22248;SDS011;67538;52.180;5.646;2023-02-08T03:09:35;16.85;;;13.50;;
22248;SDS011;67538;52.180;5.646;2023-02-08T03:12:15;17.08;;;12.77;;
22248;SDS011;67538;52.180;5.646;2023-02-08T03:14:57;23.05;;;15.98;;
22248;SDS011;67538;52.180;5.646;2023-02-08T03:17:37;21.27;;;15.50;;
22248;SDS011;67538;52.180;5.646;2023-02-08T03:20:21;21.15;;;14.77;;
22248;SDS011;67538;52.180;5.646;2023-02-08T03:22:55;20.95;;;14.40;;
22248;SDS011;67538;52.180;5.646;2023-02-08T03:25:27;20.10;;;15.00;;
22248;SDS011;67538;52.180;5.646;2023-02-08T03:28:03;19.63;;;15.37;;
22248;SDS011;67538;52.180;5.646;2023-02-08T03:30:35;19.98;;;14.43;;
22248;SDS011;67538;52.180;5.646;2023-02-08T03:33:10;18.95;;;14.20;;
22248;SDS011;67538;52.180;5.646;2023-02-08T03:35:45;18.23;;;13.77;;
22248;SDS011;67538;52.180;5.646;2023-02-08T03:38:19;21.35;;;15.20;;
22248;SDS011;67538;52.180;5.646;2023-02-08T03:40:51;22.90;;;16.25;;
22248;SDS011;67538;52.180;5.646;2023-02-08T03:43:20;20.77;;;15.27;;
22248;SDS011;67538;52.180;5.646;2023-02-08T03:45:53;20.75;;;15.13;;
22248;SDS011;67538;52.180;5.646;2023-02-08T03:48:25;21.35;;;14.73;;
22248;SDS011;67538;52.180;5.646;2023-02-08T03:50:55;19.63;;;14.10;;
22248;SDS011;67538;52.180;5.646;2023-02-08T03:53:23;20.42;;;14.77;;
22248;SDS011;67538;52.180;5.646;2023-02-08T03:55:54;19.63;;;15.30;;
22248;SDS011;67538;52.180;5.646;2023-02-08T03:58:27;22.30;;;14.47;;
22248;SDS011;67538;52.180;5.646;2023-02-08T04:01:01;20.70;;;14.60;;
22248;SDS011;67538;52.180;5.646;2023-02-08T04:03:33;20.38;;;14.02;;
22248;SDS011;67538;52.180;5.646;2023-02-08T04:06:03;19.13;;;14.18;;
22248;SDS011;67538;52.180;5.646;2023-02-08T04:08:30;20.02;;;14.80;;
22248;SDS011;67538;52.180;5.646;2023-02-08T04:10:57;20.30;;;14.52;;
22248;SDS011;67538;52.180;5.646;2023-02-08T04:13:24;22.27;;;15.20;;
22248;SDS011;67538;52.180;5.646;2023-02-08T04:15:51;18.48;;;13.68;;
22248;SDS011;67538;52.180;5.646;2023-02-08T04:18:18;17.43;;;14.23;;
22248;SDS011;67538;52.180;5.646;2023-02-08T04:20:45;19.05;;;13.95;;
22248;SDS011;67538;52.180;5.646;2023-02-08T04:23:14;21.30;;;14.25;;
22248;SDS011;67538;52.180;5.646;2023-02-08T04:25:41;19.08;;;13.75;;
22248;SDS011;67538;52.180;5.646;2023-02-08T04:28:08;18.83;;;14.10;;
22248;SDS011;67538;52.180;5.646;2023-02-08T04:30:35;18.63;;;13.98;;
22248;SDS011;67538;52.180;5.646;2023-02-08T04:33:02;17.73;;;13.65;;
22248;SDS011;67538;52.180;5.646;2023-02-08T04:35:29;17.50;;;13.55;;
22248;SDS011;67538;52.180;5.646;2023-02-08T04:37:56;17.63;;;13.65;;
22248;SDS011;67538;52.180;5.646;2023-02-08T04:40:25;18.42;;;13.57;;
22248;SDS011;67538;52.180;5.646;2023-02-08T04:42:52;18.02;;;13.65;;
22248;SDS011;67538;52.180;5.646;2023-02-08T04:45:19;20.60;;;14.85;;
22248;SDS011;67538;52.180;5.646;2023-02-08T04:47:46;21.08;;;15.10;;
22248;SDS011;67538;52.180;5.646;2023-02-08T04:50:13;19.92;;;14.43;;
22248;SDS011;67538;52.180;5.646;2023-02-08T04:52:41;20.02;;;14.73;;
22248;SDS011;67538;52.180;5.646;2023-02-08T04:55:08;19.52;;;14.10;;
22248;SDS011;67538;52.180;5.646;2023-02-08T04:57:36;19.88;;;14.05;;
22248;SDS011;67538;52.180;5.646;2023-02-08T05:00:03;15.73;;;12.65;;
22248;SDS011;67538;52.180;5.646;2023-02-08T05:02:31;15.73;;;12.63;;
22248;SDS011;67538;52.180;5.646;2023-02-08T05:04:58;16.67;;;12.80;;
22248;SDS011;67538;52.180;5.646;2023-02-08T05:07:25;19.30;;;13.35;;
22248;SDS011;67538;52.180;5.646;2023-02-08T05:09:52;20.93;;;13.77;;
22248;SDS011;67538;52.180;5.646;2023-02-08T05:12:19;20.80;;;14.68;;
22248;SDS011;67538;52.180;5.646;2023-02-08T05:14:47;21.08;;;14.70;;
22248;SDS011;67538;52.180;5.646;2023-02-08T05:17:15;22.20;;;15.32;;
22248;SDS011;67538;52.180;5.646;2023-02-08T05:19:42;19.77;;;14.48;;
22248;SDS011;67538;52.180;5.646;2023-02-08T05:22:09;21.70;;;15.47;;
22248;SDS011;67538;52.180;5.646;2023-02-08T05:24:36;23.00;;;15.57;;
22248;SDS011;67538;52.180;5.646;2023-02-08T05:27:03;21.83;;;15.10;;
22248;SDS011;67538;52.180;5.646;2023-02-08T05:29:30;22.73;;;15.40;;
22248;SDS011;67538;52.180;5.646;2023-02-08T05:31:58;21.88;;;14.85;;
22248;SDS011;67538;52.180;5.646;2023-02-08T05:34:25;22.27;;;15.90;;
22248;SDS011;67538;52.180;5.646;2023-02-08T05:36:52;24.45;;;15.50;;
22248;SDS011;67538;52.180;5.646;2023-02-08T05:39:19;22.98;;;15.57;;
22248;SDS011;67538;52.180;5.646;2023-02-08T05:41:46;18.40;;;13.98;;
22248;SDS011;67538;52.180;5.646;2023-02-08T05:44:13;20.10;;;14.82;;
22248;SDS011;67538;52.180;5.646;2023-02-08T05:46:40;20.30;;;14.05;;
22248;SDS011;67538;52.180;5.646;2023-02-08T05:49:09;21.58;;;14.90;;
22248;SDS011;67538;52.180;5.646;2023-02-08T05:51:36;20.30;;;14.68;;
22248;SDS011;67538;52.180;5.646;2023-02-08T05:54:03;24.85;;;16.38;;
22248;SDS011;67538;52.180;5.646;2023-02-08T05:56:30;26.30;;;17.10;;
22248;SDS011;67538;52.180;5.646;2023-02-08T05:58:58;21.80;;;15.43;;
22248;SDS011;67538;52.180;5.646;2023-02-08T06:01:26;21.97;;;15.60;;
22248;SDS011;67538;52.180;5.646;2023-02-08T06:03:53;21.52;;;15.60;;
22248;SDS011;67538;52.180;5.646;2023-02-08T06:06:22;20.45;;;14.70;;
22248;SDS011;67538;52.180;5.646;2023-02-08T06:08:49;20.42;;;14.50;;
22248;SDS011;67538;52.180;5.646;2023-02-08T06:11:16;22.30;;;14.55;;
22248;SDS011;67538;52.180;5.646;2023-02-08T06:13:44;22.50;;;14.93;;
22248;SDS011;67538;52.180;5.646;2023-02-08T06:16:11;18.48;;;13.52;;
22248;SDS011;67538;52.180;5.646;2023-02-08T06:18:38;22.48;;;15.50;;
22248;SDS011;67538;52.180;5.646;2023-02-08T06:21:05;22.13;;;15.95;;
22248;SDS011;67538;52.180;5.646;2023-02-08T06:23:34;22.08;;;14.40;;
22248;SDS011;67538;52.180;5.646;2023-02-08T06:26:01;24.45;;;16.30;;
22248;SDS011;67538;52.180;5.646;2023-02-08T06:28:28;28.15;;;16.33;;
22248;SDS011;67538;52.180;5.646;2023-02-08T06:30:55;21.63;;;14.95;;
22248;SDS011;67538;52.180;5.646;2023-02-08T06:33:22;21.50;;;14.67;;
22248;SDS011;67538;52.180;5.646;2023-02-08T06:35:50;19.52;;;14.55;;
22248;SDS011;67538;52.180;5.646;2023-02-08T06:38:18;23.90;;;15.57;;
22248;SDS011;67538;52.180;5.646;2023-02-08T06:40:47;33.08;;;19.20;;
22248;SDS011;67538;52.180;5.646;2023-02-08T06:43:15;27.77;;;18.00;;
22248;SDS011;67538;52.180;5.646;2023-02-08T06:45:42;28.05;;;18.80;;
22248;SDS011;67538;52.180;5.646;2023-02-08T06:48:10;28.88;;;18.40;;
22248;SDS011;67538;52.180;5.646;2023-02-08T06:50:37;24.73;;;17.05;;
22248;SDS011;67538;52.180;5.646;2023-02-08T06:53:04;23.67;;;16.90;;
22248;SDS011;67538;52.180;5.646;2023-02-08T06:55:31;23.48;;;17.00;;
22248;SDS011;67538;52.180;5.646;2023-02-08T06:57:59;27.27;;;17.92;;
22248;SDS011;67538;52.180;5.646;2023-02-08T07:00:27;27.33;;;18.23;;
22248;SDS011;67538;52.180;5.646;2023-02-08T07:02:54;27.53;;;18.97;;
22248;SDS011;67538;52.180;5.646;2023-02-08T07:05:21;26.13;;;17.23;;
22248;SDS011;67538;52.180;5.646;2023-02-08T07:07:48;28.10;;;18.05;;
22248;SDS011;67538;52.180;5.646;2023-02-08T07:10:15;23.73;;;17.55;;
22248;SDS011;67538;52.180;5.646;2023-02-08T07:12:42;23.63;;;17.52;;
22248;SDS011;67538;52.180;5.646;2023-02-08T07:15:10;26.27;;;17.67;;
22248;SDS011;67538;52.180;5.646;2023-02-08T07:17:38;40.50;;;24.80;;
22248;SDS011;67538;52.180;5.646;2023-02-08T07:20:05;30.60;;;20.55;;
22248;SDS011;67538;52.180;5.646;2023-02-08T07:22:33;27.48;;;18.13;;
22248;SDS011;67538;52.180;5.646;2023-02-08T07:25:00;25.10;;;17.50;;
22248;SDS011;67538;52.180;5.646;2023-02-08T07:27:28;26.60;;;18.15;;
22248;SDS011;67538;52.180;5.646;2023-02-08T07:29:55;26.17;;;17.60;;
22248;SDS011;67538;52.180;5.646;2023-02-08T07:32:23;22.95;;;16.10;;
22248;SDS011;67538;52.180;5.646;2023-02-08T07:34:50;25.75;;;16.92;;
22248;SDS011;67538;52.180;5.646;2023-02-08T07:37:18;30.50;;;17.63;;
22248;SDS011;67538;52.180;5.646;2023-02-08T07:39:45;25.85;;;17.42;;
22248;SDS011;67538;52.180;5.646;2023-02-08T07:42:12;31.48;;;20.08;;
22248;SDS011;67538;52.180;5.646;2023-02-08T07:44:39;31.90;;;19.98;;
22248;SDS011;67538;52.180;5.646;2023-02-08T07:47:06;32.42;;;20.33;;
22248;SDS011;67538;52.180;5.646;2023-02-08T07:49:35;31.58;;;20.80;;
22248;SDS011;67538;52.180;5.646;2023-02-08T07:52:02;31.05;;;20.10;;
22248;SDS011;67538;52.180;5.646;2023-02-08T07:54:29;24.92;;;17.67;;
22248;SDS011;67538;52.180;5.646;2023-02-08T07:56:56;24.08;;;16.88;;
22248;SDS011;67538;52.180;5.646;2023-02-08T07:59:23;29.30;;;19.67;;
22248;SDS011;67538;52.180;5.646;2023-02-08T08:01:50;25.15;;;16.90;;
22248;SDS011;67538;52.180;5.646;2023-02-08T08:04:17;27.58;;;18.38;;
22248;SDS011;67538;52.180;5.646;2023-02-08T08:06:47;26.38;;;17.60;;
22248;SDS011;67538;52.180;5.646;2023-02-08T08:09:15;25.60;;;17.95;;
22248;SDS011;67538;52.180;5.646;2023-02-08T08:11:44;26.80;;;17.83;;
22248;SDS011;67538;52.180;5.646;2023-02-08T08:14:11;26.85;;;18.20;;
22248;SDS011;67538;52.180;5.646;2023-02-08T08:16:38;29.42;;;17.65;;
22248;SDS011;67538;52.180;5.646;2023-02-08T08:19:07;27.85;;;18.38;;
22248;SDS011;67538;52.180;5.646;2023-02-08T08:21:35;25.95;;;17.55;;
22248;SDS011;67538;52.180;5.646;2023-02-08T08:24:03;60.97;;;37.13;;
22248;SDS011;67538;52.180;5.646;2023-02-08T08:26:30;68.88;;;38.67;;
22248;SDS011;67538;52.180;5.646;2023-02-08T08:28:57;85.53;;;51.88;;
22248;SDS011;67538;52.180;5.646;2023-02-08T08:31:26;37.13;;;25.38;;
22248;SDS011;67538;52.180;5.646;2023-02-08T08:33:54;50.22;;;32.58;;
22248;SDS011;67538;52.180;5.646;2023-02-08T08:36:21;47.63;;;30.75;;
22248;SDS011;67538;52.180;5.646;2023-02-08T08:38:48;34.38;;;22.70;;
22248;SDS011;67538;52.180;5.646;2023-02-08T08:41:18;28.30;;;19.38;;
22248;SDS011;67538;52.180;5.646;2023-02-08T08:43:46;21.65;;;15.45;;
22248;SDS011;67538;52.180;5.646;2023-02-08T08:46:14;24.17;;;17.02;;
22248;SDS011;67538;52.180;5.646;2023-02-08T08:48:42;23.10;;;15.93;;
22248;SDS011;67538;52.180;5.646;2023-02-08T08:51:09;25.73;;;18.25;;
22248;SDS011;67538;52.180;5.646;2023-02-08T08:53:37;24.67;;;19.05;;
22248;SDS011;67538;52.180;5.646;2023-02-08T08:56:04;20.50;;;15.27;;
22248;SDS011;67538;52.180;5.646;2023-02-08T08:58:33;21.88;;;16.05;;
22248;SDS011;67538;52.180;5.646;2023-02-08T09:01:00;25.92;;;17.33;;
22248;SDS011;67538;52.180;5.646;2023-02-08T09:03:28;31.48;;;23.48;;
22248;SDS011;67538;52.180;5.646;2023-02-08T09:05:55;84.85;;;67.97;;
22248;SDS011;67538;52.180;5.646;2023-02-08T09:08:22;20.47;;;14.83;;
22248;SDS011;67538;52.180;5.646;2023-02-08T09:10:49;21.13;;;14.35;;
22248;SDS011;67538;52.180;5.646;2023-02-08T09:13:16;22.67;;;15.20;;
22248;SDS011;67538;52.180;5.646;2023-02-08T09:15:46;19.67;;;14.50;;
22248;SDS011;67538;52.180;5.646;2023-02-08T09:18:14;20.23;;;13.82;;
22248;SDS011;67538;52.180;5.646;2023-02-08T09:20:41;22.48;;;14.30;;
22248;SDS011;67538;52.180;5.646;2023-02-08T09:23:08;19.97;;;13.77;;
22248;SDS011;67538;52.180;5.646;2023-02-08T09:25:35;20.77;;;13.90;;
22248;SDS011;67538;52.180;5.646;2023-02-08T09:28:03;21.20;;;13.50;;
22248;SDS011;67538;52.180;5.646;2023-02-08T09:30:30;20.70;;;13.75;;
22248;SDS011;67538;52.180;5.646;2023-02-08T09:32:59;18.40;;;13.02;;
22248;SDS011;67538;52.180;5.646;2023-02-08T09:35:26;18.27;;;13.13;;
22248;SDS011;67538;52.180;5.646;2023-02-08T09:37:53;18.85;;;12.85;;
22248;SDS011;67538;52.180;5.646;2023-02-08T09:40:22;18.17;;;12.77;;
22248;SDS011;67538;52.180;5.646;2023-02-08T09:42:53;19.55;;;14.02;;
22248;SDS011;67538;52.180;5.646;2023-02-08T09:45:32;17.70;;;13.15;;
22248;SDS011;67538;52.180;5.646;2023-02-08T09:48:13;20.23;;;13.13;;
22248;SDS011;67538;52.180;5.646;2023-02-08T09:50:44;18.55;;;12.65;;
22248;SDS011;67538;52.180;5.646;2023-02-08T09:53:14;18.38;;;13.43;;
22248;SDS011;67538;52.180;5.646;2023-02-08T09:55:47;20.38;;;13.88;;
22248;SDS011;67538;52.180;5.646;2023-02-08T09:58:18;19.48;;;12.55;;
22248;SDS011;67538;52.180;5.646;2023-02-08T10:00:48;19.23;;;13.32;;
22248;SDS011;67538;52.180;5.646;2023-02-08T10:03:22;19.10;;;13.15;;
22248;SDS011;67538;52.180;5.646;2023-02-08T10:05:54;19.73;;;12.48;;
22248;SDS011;67538;52.180;5.646;2023-02-08T10:08:21;19.80;;;12.57;;
22248;SDS011;67538;52.180;5.646;2023-02-08T10:10:50;20.75;;;13.80;;
22248;SDS011;67538;52.180;5.646;2023-02-08T10:16:12;20.67;;;13.10;;
22248;SDS011;67538;52.180;5.646;2023-02-08T10:19:02;19.67;;;12.70;;
22248;SDS011;67538;52.180;5.646;2023-02-08T10:21:40;15.93;;;10.98;;
22248;SDS011;67538;52.180;5.646;2023-02-08T10:24:37;17.88;;;11.70;;
22248;SDS011;67538;52.180;5.646;2023-02-08T10:27:22;16.52;;;11.07;;
22248;SDS011;67538;52.180;5.646;2023-02-08T10:30:00;18.13;;;11.27;;
22248;SDS011;67538;52.180;5.646;2023-02-08T10:32:49;17.60;;;10.73;;
22248;SDS011;67538;52.180;5.646;2023-02-08T10:35:25;17.57;;;10.77;;
22248;SDS011;67538;52.180;5.646;2023-02-08T10:37:56;17.42;;;11.48;;
22248;SDS011;67538;52.180;5.646;2023-02-08T10:40:30;15.98;;;10.40;;
22248;SDS011;67538;52.180;5.646;2023-02-08T10:43:04;13.77;;;9.98;;
22248;SDS011;67538;52.180;5.646;2023-02-08T10:45:40;15.13;;;10.00;;
22248;SDS011;67538;52.180;5.646;2023-02-08T10:48:14;18.10;;;10.70;;
22248;SDS011;67538;52.180;5.646;2023-02-08T10:50:49;14.23;;;10.27;;
22248;SDS011;67538;52.180;5.646;2023-02-08T10:53:16;22.52;;;10.60;;
22248;SDS011;67538;52.180;5.646;2023-02-08T10:55:45;14.57;;;10.05;;
22248;SDS011;67538;52.180;5.646;2023-02-08T10:58:13;13.95;;;9.85;;
22248;SDS011;67538;52.180;5.646;2023-02-08T11:00:42;14.73;;;9.45;;
22248;SDS011;67538;52.180;5.646;2023-02-08T11:03:15;14.52;;;9.32;;
22248;SDS011;67538;52.180;5.646;2023-02-08T11:05:45;13.65;;;9.57;;
22248;SDS011;67538;52.180;5.646;2023-02-08T11:08:15;13.75;;;9.02;;
22248;SDS011;67538;52.180;5.646;2023-02-08T11:10:44;13.43;;;8.75;;
22248;SDS011;67538;52.180;5.646;2023-02-08T11:13:21;12.73;;;8.87;;
22248;SDS011;67538;52.180;5.646;2023-02-08T11:15:50;14.77;;;9.60;;
22248;SDS011;67538;52.180;5.646;2023-02-08T11:18:21;17.23;;;9.52;;
22248;SDS011;67538;52.180;5.646;2023-02-08T11:20:51;15.00;;;8.40;;
22248;SDS011;67538;52.180;5.646;2023-02-08T11:23:23;11.80;;;8.20;;
22248;SDS011;67538;52.180;5.646;2023-02-08T11:25:54;14.40;;;9.10;;
22248;SDS011;67538;52.180;5.646;2023-02-08T11:28:39;12.18;;;8.18;;
22248;SDS011;67538;52.180;5.646;2023-02-08T11:31:11;11.75;;;7.60;;
22248;SDS011;67538;52.180;5.646;2023-02-08T11:33:48;13.55;;;8.77;;
22248;SDS011;67538;52.180;5.646;2023-02-08T11:36:24;11.73;;;7.97;;
22248;SDS011;67538;52.180;5.646;2023-02-08T11:38:52;13.20;;;8.88;;
22248;SDS011;67538;52.180;5.646;2023-02-08T11:41:20;11.50;;;8.10;;
22248;SDS011;67538;52.180;5.646;2023-02-08T11:43:51;13.25;;;8.30;;
22248;SDS011;67538;52.180;5.646;2023-02-08T11:46:24;12.93;;;8.65;;
22248;SDS011;67538;52.180;5.646;2023-02-08T11:48:52;15.98;;;10.23;;
22248;SDS011;67538;52.180;5.646;2023-02-08T11:51:27;13.98;;;8.40;;
22248;SDS011;67538;52.180;5.646;2023-02-08T11:53:57;9.90;;;7.82;;
22248;SDS011;67538;52.180;5.646;2023-02-08T11:56:26;11.35;;;7.90;;
22248;SDS011;67538;52.180;5.646;2023-02-08T11:58:58;19.85;;;12.35;;
22248;SDS011;67538;52.180;5.646;2023-02-08T12:01:29;13.57;;;8.52;;
22248;SDS011;67538;52.180;5.646;2023-02-08T12:03:58;12.05;;;8.27;;
22248;SDS011;67538;52.180;5.646;2023-02-08T12:06:41;9.80;;;7.18;;
22248;SDS011;67538;52.180;5.646;2023-02-08T12:09:31;9.52;;;6.70;;
22248;SDS011;67538;52.180;5.646;2023-02-08T12:12:11;11.65;;;6.40;;
22248;SDS011;67538;52.180;5.646;2023-02-08T12:14:48;10.98;;;6.95;;
22248;SDS011;67538;52.180;5.646;2023-02-08T12:17:29;9.82;;;6.38;;
22248;SDS011;67538;52.180;5.646;2023-02-08T12:20:23;8.85;;;6.03;;
22248;SDS011;67538;52.180;5.646;2023-02-08T12:23:06;11.07;;;6.47;;
22248;SDS011;67538;52.180;5.646;2023-02-08T12:26:06;8.18;;;6.30;;
22248;SDS011;67538;52.180;5.646;2023-02-08T12:28:44;9.02;;;5.60;;
22248;SDS011;67538;52.180;5.646;2023-02-08T12:31:25;7.65;;;5.53;;
22248;SDS011;67538;52.180;5.646;2023-02-08T12:34:06;7.90;;;5.60;;
22248;SDS011;67538;52.180;5.646;2023-02-08T12:36:41;7.53;;;5.05;;
22248;SDS011;67538;52.180;5.646;2023-02-08T12:39:42;6.50;;;5.10;;
22248;SDS011;67538;52.180;5.646;2023-02-08T12:42:39;7.85;;;5.32;;
22248;SDS011;67538;52.180;5.646;2023-02-08T12:48:17;8.43;;;5.10;;
22248;SDS011;67538;52.180;5.646;2023-02-08T12:51:03;8.18;;;5.53;;
22248;SDS011;67538;52.180;5.646;2023-02-08T12:53:37;8.75;;;5.63;;
22248;SDS011;67538;52.180;5.646;2023-02-08T12:56:10;8.52;;;5.32;;
22248;SDS011;67538;52.180;5.646;2023-02-08T12:58:43;7.95;;;5.30;;
22248;SDS011;67538;52.180;5.646;2023-02-08T13:01:13;8.50;;;5.15;;
22248;SDS011;67538;52.180;5.646;2023-02-08T13:03:44;7.95;;;4.82;;
22248;SDS011;67538;52.180;5.646;2023-02-08T13:06:16;7.50;;;5.43;;
22248;SDS011;67538;52.180;5.646;2023-02-08T13:08:48;7.68;;;5.32;;
22248;SDS011;67538;52.180;5.646;2023-02-08T13:11:22;9.00;;;4.63;;
22248;SDS011;67538;52.180;5.646;2023-02-08T13:13:57;9.13;;;4.47;;
22248;SDS011;67538;52.180;5.646;2023-02-08T13:16:30;6.85;;;4.75;;
22248;SDS011;67538;52.180;5.646;2023-02-08T13:19:20;6.60;;;4.70;;
22248;SDS011;67538;52.180;5.646;2023-02-08T13:21:52;7.65;;;4.90;;
22248;SDS011;67538;52.180;5.646;2023-02-08T13:24:30;7.97;;;4.90;;
22248;SDS011;67538;52.180;5.646;2023-02-08T13:27:00;7.28;;;4.63;;
22248;SDS011;67538;52.180;5.646;2023-02-08T13:29:31;6.73;;;4.30;;
22248;SDS011;67538;52.180;5.646;2023-02-08T13:31:59;8.65;;;5.65;;
22248;SDS011;67538;52.180;5.646;2023-02-08T13:34:30;8.48;;;4.53;;
22248;SDS011;67538;52.180;5.646;2023-02-08T13:37:00;7.00;;;4.73;;
22248;SDS011;67538;52.180;5.646;2023-02-08T13:39:33;8.02;;;4.57;;
22248;SDS011;67538;52.180;5.646;2023-02-08T13:42:02;7.18;;;4.50;;
22248;SDS011;67538;52.180;5.646;2023-02-08T13:44:34;5.32;;;4.25;;
22248;SDS011;67538;52.180;5.646;2023-02-08T13:47:02;8.43;;;4.10;;
22248;SDS011;67538;52.180;5.646;2023-02-08T13:49:43;5.30;;;3.92;;
22248;SDS011;67538;52.180;5.646;2023-02-08T14:01:15;6.60;;;4.03;;
22248;SDS011;67538;52.180;5.646;2023-02-08T14:06:45;6.53;;;4.10;;
22248;SDS011;67538;52.180;5.646;2023-02-08T14:09:18;6.13;;;4.00;;
22248;SDS011;67538;52.180;5.646;2023-02-08T14:11:51;6.03;;;4.22;;
22248;SDS011;67538;52.180;5.646;2023-02-08T14:14:22;5.05;;;3.83;;
22248;SDS011;67538;52.180;5.646;2023-02-08T14:17:12;5.65;;;3.30;;
22248;SDS011;67538;52.180;5.646;2023-02-08T14:19:44;5.82;;;3.55;;
22248;SDS011;67538;52.180;5.646;2023-02-08T14:22:21;4.82;;;3.60;;
22248;SDS011;67538;52.180;5.646;2023-02-08T14:24:49;6.13;;;3.55;;
22248;SDS011;67538;52.180;5.646;2023-02-08T14:27:27;4.72;;;3.50;;
22248;SDS011;67538;52.180;5.646;2023-02-08T14:29:57;4.85;;;3.40;;
22248;SDS011;67538;52.180;5.646;2023-02-08T14:32:29;6.38;;;3.55;;
22248;SDS011;67538;52.180;5.646;2023-02-08T14:34:58;6.63;;;3.70;;
22248;SDS011;67538;52.180;5.646;2023-02-08T14:37:28;7.07;;;4.13;;
22248;SDS011;67538;52.180;5.646;2023-02-08T14:43:00;4.77;;;3.40;;
22248;SDS011;67538;52.180;5.646;2023-02-08T14:45:29;7.25;;;3.72;;
22248;SDS011;67538;52.180;5.646;2023-02-08T14:48:16;4.78;;;3.55;;
22248;SDS011;67538;52.180;5.646;2023-02-08T14:50:51;5.53;;;3.33;;
22248;SDS011;67538;52.180;5.646;2023-02-08T14:56:13;5.63;;;3.80;;
22248;SDS011;67538;52.180;5.646;2023-02-08T14:58:44;7.50;;;3.90;;
22248;SDS011;67538;52.180;5.646;2023-02-08T15:01:16;4.07;;;3.67;;
22248;SDS011;67538;52.180;5.646;2023-02-08T15:03:47;5.35;;;3.53;;
22248;SDS011;67538;52.180;5.646;2023-02-08T15:09:18;4.00;;;3.42;;
22248;SDS011;67538;52.180;5.646;2023-02-08T15:11:49;6.20;;;3.90;;
22248;SDS011;67538;52.180;5.646;2023-02-08T15:14:24;5.50;;;3.85;;
22248;SDS011;67538;52.180;5.646;2023-02-08T15:16:52;4.78;;;4.20;;
22248;SDS011;67538;52.180;5.646;2023-02-08T15:19:22;6.90;;;3.70;;
22248;SDS011;67538;52.180;5.646;2023-02-08T15:21:52;6.65;;;4.03;;
22248;SDS011;67538;52.180;5.646;2023-02-08T15:24:20;5.85;;;4.07;;